Time;durP1;ratioP1;P1;durP2;ratioP2;P2;SDS_P1;SDS_P2;PMS_P1;PMS_P2;Temp;Humidity;BMP_temperature;BMP_pressure;BME280_temperature;BME280_humidity;BME280_pressure;Samples;Min_cycle;Max_cycle;Signal;HPM_P1;HPM_P2
2023/02/16 00:01:46;;;;;;;71.25;41.17;;;4.60;99.90;;;;;;5070100;28;20079;-71
2023/02/16 00:04:18;;;;;;;68.18;40.85;;;4.60;99.90;;;;;;5069773;28;20047;-71
2023/02/16 00:06:44;;;;;;;64.25;39.75;;;4.60;99.90;;;;;;5070283;28;20386;-71
2023/02/16 00:09:10;;;;;;;76.00;41.50;;;4.60;99.90;;;;;;5071436;28;20056;-71
2023/02/16 00:14:24;;;;;;;71.63;40.55;;;4.80;99.90;;;;;;5069536;28;20067;-71
2023/02/16 00:16:54;;;;;;;68.03;42.33;;;4.60;99.90;;;;;;5071223;28;20093;-71
2023/02/16 00:19:32;;;;;;;78.47;42.65;;;4.80;99.90;;;;;;5069846;28;20521;-71
2023/02/16 00:21:59;;;;;;;74.13;42.95;;;4.90;99.90;;;;;;5069832;28;20041;-71
2023/02/16 00:24:27;;;;;;;73.90;43.38;;;4.80;99.90;;;;;;5070757;28;20040;-71
2023/02/16 00:26:53;;;;;;;77.70;43.47;;;5.00;99.90;;;;;;5070029;28;20040;-71
2023/02/16 00:29:25;;;;;;;72.50;41.10;;;4.80;99.90;;;;;;5070033;28;20059;-71
2023/02/16 00:31:51;;;;;;;68.57;42.13;;;5.00;99.90;;;;;;5070970;28;20044;-71
2023/02/16 00:34:26;;;;;;;71.60;41.78;;;4.80;99.90;;;;;;5069204;28;20087;-71
2023/02/16 00:36:52;;;;;;;73.28;41.28;;;5.00;99.90;;;;;;5069809;28;20049;-71
2023/02/16 00:39:18;;;;;;;71.03;41.95;;;4.90;99.90;;;;;;5069683;28;20043;-71
2023/02/16 00:41:49;;;;;;;67.65;40.72;;;4.90;99.90;;;;;;5069764;28;20119;-71
2023/02/16 00:44:19;;;;;;;77.35;43.53;;;5.10;99.90;;;;;;5070826;28;20043;-71
2023/02/16 00:46:46;;;;;;;73.70;41.03;;;5.10;99.90;;;;;;5069635;28;20102;-71
2023/02/16 00:49:19;;;;;;;79.65;41.17;;;5.10;99.90;;;;;;5069617;28;20051;-71
2023/02/16 00:51:46;;;;;;;70.72;42.83;;;4.90;99.90;;;;;;5070862;28;20045;-71
2023/02/16 00:54:12;;;;;;;67.05;38.72;;;5.00;99.90;;;;;;5092655;22;20054;-77
2023/02/16 00:56:38;;;;;;;71.53;42.15;;;4.90;99.90;;;;;;5071586;28;20032;-76
2023/02/16 00:59:11;;;;;;;73.07;41.55;;;4.90;99.90;;;;;;5070100;28;20043;-76
2023/02/16 01:01:37;;;;;;;72.33;42.00;;;4.90;99.90;;;;;;5069794;28;20052;-76
2023/02/16 01:04:06;;;;;;;74.20;43.28;;;4.90;99.90;;;;;;5070959;28;20041;-76
2023/02/16 01:12:14;;;;;;;71.18;41.22;;;4.90;99.90;;;;;;5070192;28;20523;-76
2023/02/16 01:14:39;;;;;;;70.63;41.70;;;4.90;99.90;;;;;;5070997;28;20063;-77
2023/02/16 01:17:05;;;;;;;78.93;42.88;;;5.00;99.90;;;;;;5069939;28;20041;-77
2023/02/16 01:19:30;;;;;;;65.28;41.17;;;5.10;99.90;;;;;;5071240;28;20051;-76
2023/02/16 01:21:56;;;;;;;69.85;41.45;;;5.10;99.90;;;;;;5071144;28;20036;-76
2023/02/16 01:24:21;;;;;;;72.43;41.88;;;4.90;99.90;;;;;;5069688;28;20046;-76
2023/02/16 01:26:49;;;;;;;66.03;40.97;;;5.10;99.90;;;;;;5071222;28;20051;-76
2023/02/16 01:29:19;;;;;;;76.45;43.45;;;4.90;99.90;;;;;;5069898;28;20040;-76
2023/02/16 01:31:45;;;;;;;67.65;41.45;;;5.10;99.90;;;;;;5071317;28;20040;-76
2023/02/16 01:34:11;;;;;;;71.93;41.35;;;5.10;99.90;;;;;;5069824;28;20051;-76
2023/02/16 01:36:45;;;;;;;71.78;42.13;;;5.00;99.90;;;;;;5053093;28;20044;-76
2023/02/16 01:39:17;;;;;;;72.03;42.63;;;4.90;99.90;;;;;;5075054;28;20414;-76
2023/02/16 01:42:10;;;;;;;69.07;42.08;;;5.10;99.90;;;;;;5074844;28;20441;-76
2023/02/16 01:44:48;;;;;;;71.07;42.10;;;5.10;99.90;;;;;;5073364;28;20036;-76
2023/02/16 01:47:13;;;;;;;67.53;40.85;;;4.90;99.90;;;;;;5073544;28;20422;-77
2023/02/16 01:49:39;;;;;;;72.43;45.15;;;4.80;99.90;;;;;;5073509;28;20055;-77
2023/02/16 01:52:34;;;;;;;75.22;44.20;;;5.00;99.90;;;;;;5074539;28;20047;-77
2023/02/16 01:55:22;;;;;;;76.95;44.03;;;4.90;99.90;;;;;;5073221;28;20051;-77
2023/02/16 01:57:58;;;;;;;67.00;39.88;;;5.00;99.90;;;;;;5074616;28;20070;-77
2023/02/16 02:00:47;;;;;;;62.92;39.25;;;4.90;99.90;;;;;;5073220;28;20044;-77
2023/02/16 02:06:01;;;;;;;67.82;41.10;;;4.80;99.90;;;;;;5073197;28;20051;-77
2023/02/16 02:08:50;;;;;;;70.55;41.70;;;4.90;99.90;;;;;;5074454;28;20032;-77
2023/02/16 02:11:23;;;;;;;72.28;41.28;;;4.80;99.90;;;;;;5073165;28;20040;-78
2023/02/16 02:13:53;;;;;;;69.20;41.92;;;4.80;99.90;;;;;;5093024;28;20550;-77
2023/02/16 02:16:21;;;;;;;71.30;42.28;;;4.80;99.90;;;;;;5094532;28;20119;-77
2023/02/16 02:18:48;;;;;;;64.50;40.55;;;5.00;99.90;;;;;;5093458;28;20036;-77
2023/02/16 02:25:38;;;;;;;74.57;40.67;;;4.70;99.90;;;;;;5075745;28;20047;-77
2023/02/16 02:28:30;;;;;;;71.35;43.80;;;4.70;99.90;;;;;;5015178;28;20548;-77
2023/02/16 02:31:09;;;;;;;63.83;38.95;;;4.70;99.90;;;;;;5092638;28;20096;-77
2023/02/16 02:33:50;;;;;;;68.97;41.70;;;4.70;99.90;;;;;;5093623;28;20479;-77
2023/02/16 02:36:39;;;;;;;68.53;39.20;;;4.40;99.90;;;;;;5093041;28;20063;-77
2023/02/16 02:39:33;;;;;;;63.60;38.13;;;4.60;99.90;;;;;;5092479;28;20115;-77
2023/02/16 02:42:09;;;;;;;72.13;40.17;;;4.50;99.90;;;;;;5092831;28;20156;-77
2023/02/16 02:44:41;;;;;;;70.97;40.58;;;4.20;99.90;;;;;;5093803;28;20039;-77
2023/02/16 02:47:07;;;;;;;69.25;38.90;;;4.40;99.90;;;;;;5093850;28;20075;-77
2023/02/16 02:49:32;;;;;;;70.15;40.33;;;4.30;99.90;;;;;;5092819;28;20078;-77
2023/02/16 02:51:58;;;;;;;69.65;40.13;;;4.50;99.90;;;;;;5092428;28;20040;-76
2023/02/16 03:00:42;;;;;;;70.25;41.83;;;4.30;99.90;;;;;;5092364;28;20492;-77
2023/02/16 03:03:29;;;;;;;70.03;40.50;;;4.40;99.90;;;;;;5091394;28;20176;-76
2023/02/16 03:06:09;;;;;;;70.55;41.30;;;4.50;99.90;;;;;;5092148;28;20048;-76
2023/02/16 03:08:38;;;;;;;67.93;41.42;;;4.40;99.90;;;;;;5075192;28;20047;-76
2023/02/16 03:14:06;;;;;;;68.20;39.78;;;4.40;99.90;;;;;;5092996;28;20040;-76
2023/02/16 03:16:43;;;;;;;70.00;40.85;;;4.50;99.90;;;;;;5091935;28;20451;-76
2023/02/16 03:30:17;;;;;;;71.05;42.08;;;4.50;99.90;;;;;;5091916;28;20480;-76
2023/02/16 03:32:43;;;;;;;71.32;42.65;;;4.60;99.90;;;;;;5092886;28;20040;-76
2023/02/16 03:35:11;;;;;;;75.22;43.05;;;4.60;99.90;;;;;;5091455;28;20518;-76
2023/02/16 03:37:38;;;;;;;71.45;42.30;;;4.50;99.90;;;;;;5091797;28;20040;-76
2023/02/16 03:42:51;;;;;;;79.90;44.97;;;4.70;99.90;;;;;;5091287;28;20588;-76
2023/02/16 03:45:19;;;;;;;80.10;45.92;;;4.70;99.90;;;;;;5092654;28;20071;-76
2023/02/16 03:47:44;;;;;;;69.60;43.35;;;4.80;99.90;;;;;;5092855;28;20136;-76
2023/02/16 03:50:10;;;;;;;77.28;43.58;;;4.90;99.90;;;;;;5091742;28;20082;-76
2023/02/16 03:52:36;;;;;;;82.07;46.25;;;4.70;99.90;;;;;;5090741;28;20036;-76
2023/02/16 03:55:01;;;;;;;77.82;43.40;;;5.00;99.90;;;;;;5090906;28;20063;-76
2023/02/16 03:57:27;;;;;;;73.45;41.60;;;4.70;99.90;;;;;;5091270;28;20032;-76
2023/02/16 03:59:53;;;;;;;73.97;44.33;;;4.80;99.90;;;;;;5092343;28;20085;-76
2023/02/16 04:02:19;;;;;;;74.03;44.67;;;4.90;99.90;;;;;;5090898;28;20044;-76
2023/02/16 04:04:44;;;;;;;78.50;44.13;;;5.10;99.90;;;;;;5092306;28;20040;-76
2023/02/16 04:07:10;;;;;;;70.63;43.58;;;4.90;99.90;;;;;;5092329;28;20072;-76
2023/02/16 04:09:35;;;;;;;79.20;46.78;;;5.30;99.90;;;;;;5090965;28;20044;-76
2023/02/16 04:14:45;;;;;;;76.55;44.53;;;5.20;99.90;;;;;;5090648;28;20134;-76
2023/02/16 04:17:10;;;;;;;82.07;45.80;;;5.10;99.90;;;;;;5090775;28;20127;-76
2023/02/16 04:19:36;;;;;;;69.53;42.80;;;5.10;99.90;;;;;;5090951;28;20115;-77
2023/02/16 04:22:01;;;;;;;76.60;45.00;;;5.10;99.90;;;;;;5073852;28;20138;-76
2023/02/16 04:24:27;;;;;;;73.95;44.40;;;5.20;99.90;;;;;;5091744;28;20574;-77
2023/02/16 04:26:53;;;;;;;79.25;48.40;;;5.30;99.90;;;;;;5090441;28;20047;-76
2023/02/16 04:29:18;;;;;;;78.72;46.53;;;5.30;99.90;;;;;;5092052;28;20044;-77
2023/02/16 04:31:44;;;;;;;79.38;44.08;;;5.40;99.90;;;;;;5091926;28;20028;-77
2023/02/16 04:34:09;;;;;;;76.68;45.58;;;5.40;99.90;;;;;;5091278;28;20617;-77
2023/02/16 04:36:35;;;;;;;81.40;46.97;;;5.40;99.90;;;;;;5091704;28;20043;-76
2023/02/16 04:39:00;;;;;;;73.13;45.13;;;5.70;99.90;;;;;;5090534;28;20065;-76
2023/02/16 04:41:26;;;;;;;75.47;45.85;;;5.70;99.90;;;;;;5091738;28;20040;-77
2023/02/16 04:43:52;;;;;;;79.28;46.38;;;5.70;99.90;;;;;;5090189;28;20411;-76
2023/02/16 04:46:18;;;;;;;79.68;47.10;;;5.80;99.90;;;;;;5091875;28;20113;-76
2023/02/16 04:48:44;;;;;;;78.72;46.78;;;5.80;99.90;;;;;;5091602;28;20040;-76
2023/02/16 04:51:10;;;;;;;80.45;45.47;;;5.60;99.90;;;;;;5090186;28;20089;-76
2023/02/16 04:53:35;;;;;;;74.75;45.00;;;5.60;99.90;;;;;;5089951;28;20063;-77
2023/02/16 04:56:01;;;;;;;74.88;44.38;;;5.70;99.90;;;;;;5091651;28;20121;-76
2023/02/16 04:58:27;;;;;;;76.47;44.10;;;5.90;99.90;;;;;;5090210;28;20036;-76
2023/02/16 05:00:52;;;;;;;79.55;48.53;;;5.90;99.90;;;;;;5073397;28;20042;-76
2023/02/16 05:03:18;;;;;;;71.40;43.85;;;5.80;99.90;;;;;;5090323;28;20044;-76
2023/02/16 05:05:43;;;;;;;81.70;46.92;;;5.70;99.90;;;;;;5091218;28;20549;-77
2023/02/16 05:08:09;;;;;;;78.18;45.58;;;5.80;99.90;;;;;;5090114;28;20044;-77
2023/02/16 05:10:34;;;;;;;81.07;46.60;;;5.90;99.90;;;;;;5081243;28;20040;-76
2023/02/16 05:15:45;;;;;;;79.25;44.78;;;5.80;99.90;;;;;;5075257;28;20053;-76
2023/02/16 05:18:10;;;;;;;77.78;46.90;;;6.00;99.90;;;;;;5075170;28;20040;-76
2023/02/16 05:23:20;;;;;;;78.97;45.50;;;6.00;99.90;;;;;;5073817;28;20094;-76
2023/02/16 05:25:45;;;;;;;72.32;44.10;;;6.10;99.90;;;;;;5073577;28;20037;-76
2023/02/16 05:28:11;;;;;;;75.03;43.85;;;5.90;99.90;;;;;;5075217;28;20040;-76
2023/02/16 05:30:37;;;;;;;76.28;44.97;;;5.90;99.90;;;;;;5075205;28;20139;-77
2023/02/16 05:33:02;;;;;;;77.22;45.67;;;5.90;99.90;;;;;;5073419;28;20482;-77
2023/02/16 05:35:28;;;;;;;77.85;47.05;;;5.90;99.90;;;;;;5073474;28;20052;-76
2023/02/16 05:37:53;;;;;;;76.57;46.90;;;6.10;99.90;;;;;;5073779;28;20052;-76
2023/02/16 05:40:19;;;;;;;77.78;46.40;;;6.10;99.90;;;;;;5073677;28;20491;-76
2023/02/16 05:42:44;;;;;;;76.55;45.70;;;5.90;99.90;;;;;;5073363;28;20036;-76
2023/02/16 05:45:10;;;;;;;73.57;46.13;;;6.20;99.90;;;;;;5074555;28;20043;-76
2023/02/16 05:47:35;;;;;;;74.93;46.10;;;6.00;99.90;;;;;;5074635;28;20044;-76
2023/02/16 05:50:01;;;;;;;76.93;45.42;;;6.20;99.90;;;;;;5074792;28;20059;-76
2023/02/16 05:52:26;;;;;;;77.95;46.35;;;6.20;99.90;;;;;;5073458;28;20067;-76
2023/02/16 05:54:52;;;;;;;75.18;44.10;;;6.10;99.90;;;;;;5074167;28;20526;-76
2023/02/16 05:57:17;;;;;;;74.78;46.47;;;6.00;99.90;;;;;;5073258;28;20048;-76
2023/02/16 05:59:43;;;;;;;75.13;45.85;;;6.00;99.90;;;;;;5074410;28;20040;-77
2023/02/16 06:02:08;;;;;;;79.07;47.13;;;6.00;99.90;;;;;;5073917;28;20036;-76
2023/02/16 06:04:34;;;;;;;78.97;46.08;;;6.20;99.90;;;;;;5073919;28;20538;-77
2023/02/16 06:07:00;;;;;;;75.25;47.88;;;6.30;99.90;;;;;;5072989;28;20127;-76
2023/02/16 06:09:26;;;;;;;83.55;48.05;;;6.30;99.90;;;;;;5056275;28;20048;-76
2023/02/16 06:11:51;;;;;;;82.90;48.17;;;6.20;99.90;;;;;;5074035;28;20041;-76
2023/02/16 06:14:19;;;;;;;77.97;46.22;;;6.30;99.90;;;;;;5073881;28;20040;-76
2023/02/16 06:16:47;;;;;;;70.00;45.00;;;6.30;99.90;;;;;;5074048;28;20032;-76
2023/02/16 06:19:13;;;;;;;76.72;44.90;;;6.10;99.90;;;;;;5074427;28;20040;-77
2023/02/16 06:21:39;;;;;;;71.07;46.38;;;6.30;99.90;;;;;;5074347;28;20042;-76
2023/02/16 06:24:06;;;;;;;77.32;45.42;;;6.30;99.90;;;;;;5073761;28;20037;-76
2023/02/16 06:26:32;;;;;;;70.47;42.88;;;6.10;99.90;;;;;;5073072;28;20127;-76
2023/02/16 06:28:58;;;;;;;77.70;46.42;;;6.10;99.90;;;;;;5073989;28;20590;-77
2023/02/16 06:31:24;;;;;;;78.50;44.95;;;6.30;99.90;;;;;;5072978;28;20049;-77
2023/02/16 06:33:50;;;;;;;78.00;47.30;;;6.00;99.90;;;;;;5072444;28;20415;-76
2023/02/16 06:36:16;;;;;;;71.03;45.55;;;6.30;99.90;;;;;;5072584;28;20036;-76
2023/02/16 06:38:42;;;;;;;72.82;44.30;;;6.30;99.90;;;;;;5072850;28;20044;-77
2023/02/16 06:41:08;;;;;;;75.60;43.25;;;6.20;99.90;;;;;;5073860;28;20044;-77
2023/02/16 06:43:34;;;;;;;72.45;43.10;;;6.30;99.90;;;;;;5073356;28;20040;-76
2023/02/16 06:46:00;;;;;;;78.45;44.25;;;6.30;99.90;;;;;;5073598;28;20117;-76
2023/02/16 06:48:25;;;;;;;72.22;44.15;;;6.30;99.90;;;;;;5055806;28;20039;-76
2023/02/16 06:50:51;;;;;;;74.30;46.80;;;6.20;99.90;;;;;;5072450;28;20384;-76
2023/02/16 06:53:16;;;;;;;74.05;44.85;;;6.10;99.90;;;;;;5072843;28;20520;-76
2023/02/16 06:55:42;;;;;;;73.97;46.88;;;6.30;99.90;;;;;;5055377;28;20119;-77
2023/02/16 06:58:12;;;;;;;79.22;47.63;;;6.30;99.90;;;;;;5073443;28;20043;-76
2023/02/16 07:00:38;;;;;;;70.35;43.20;;;6.20;99.90;;;;;;5072011;28;20496;-76
2023/02/16 07:03:03;;;;;;;77.50;45.30;;;6.30;99.90;;;;;;5071810;28;20064;-77
2023/02/16 07:05:29;;;;;;;70.25;44.55;;;6.30;99.90;;;;;;5055494;28;20043;-77
2023/02/16 07:07:55;;;;;;;78.72;44.90;;;6.20;99.90;;;;;;5072087;28;20047;-76
2023/02/16 07:10:20;;;;;;;76.50;44.83;;;6.30;99.90;;;;;;5072102;28;20064;-77
2023/02/16 07:12:47;;;;;;;71.80;43.03;;;6.30;99.90;;;;;;5054968;28;20036;-77
2023/02/16 07:15:12;;;;;;;77.85;46.42;;;6.30;99.90;;;;;;5071866;28;20111;-77
2023/02/16 07:17:38;;;;;;;75.18;44.83;;;6.20;99.90;;;;;;5071425;28;20127;-78
2023/02/16 07:20:04;;;;;;;73.28;43.28;;;6.20;99.90;;;;;;5071661;28;20047;-77
2023/02/16 07:22:30;;;;;;;72.75;45.08;;;6.40;99.90;;;;;;5071565;28;20135;-77
2023/02/16 07:24:57;;;;;;;74.07;45.05;;;6.50;99.90;;;;;;5072776;28;20039;-77
2023/02/16 07:27:24;;;;;;;71.32;43.17;;;6.30;99.90;;;;;;5071514;28;20048;-77
2023/02/16 07:29:49;;;;;;;70.32;44.55;;;6.50;99.90;;;;;;5071675;28;20123;-77
2023/02/16 07:32:15;;;;;;;76.88;46.08;;;6.30;99.90;;;;;;5071450;28;20124;-77
2023/02/16 07:34:40;;;;;;;78.30;46.05;;;6.30;99.90;;;;;;5054059;28;20086;-77
2023/02/16 07:37:06;;;;;;;76.47;45.92;;;6.40;99.90;;;;;;5071299;28;20082;-77
2023/02/16 07:39:31;;;;;;;75.72;47.40;;;6.50;99.90;;;;;;5071650;28;20376;-77
2023/02/16 07:41:57;;;;;;;76.53;47.38;;;6.50;99.90;;;;;;5071237;28;20507;-78
2023/02/16 07:44:22;;;;;;;73.57;44.55;;;6.50;99.90;;;;;;5070889;28;20036;-77
2023/02/16 07:46:48;;;;;;;77.13;45.92;;;6.70;99.90;;;;;;5071206;28;20051;-76
2023/02/16 07:49:13;;;;;;;77.93;47.63;;;6.60;99.90;;;;;;5072523;28;20051;-76
2023/02/16 07:51:39;;;;;;;72.80;46.05;;;6.60;99.90;;;;;;5071107;28;20044;-76
2023/02/16 07:54:05;;;;;;;74.47;46.92;;;6.70;99.90;;;;;;5070658;28;20044;-76
2023/02/16 07:56:32;;;;;;;74.60;48.67;;;6.70;99.90;;;;;;5070978;28;20047;-77
2023/02/16 07:59:00;;;;;;;77.10;47.13;;;6.60;99.90;;;;;;5069099;28;20037;-77
2023/02/16 08:01:26;;;;;;;78.97;49.58;;;6.70;99.90;;;;;;5059555;28;20036;-76
2023/02/16 08:03:52;;;;;;;77.53;45.45;;;6.60;99.90;;;;;;5062427;28;20120;-76
2023/02/16 08:06:19;;;;;;;75.93;46.05;;;6.80;99.90;;;;;;5060357;28;20389;-76
2023/02/16 08:08:44;;;;;;;78.18;47.22;;;6.80;99.90;;;;;;5062240;28;20032;-77
2023/02/16 08:11:12;;;;;;;73.22;45.80;;;6.80;99.90;;;;;;5070089;28;20078;-78
2023/02/16 08:13:38;;;;;;;71.40;45.40;;;6.80;99.90;;;;;;5069946;28;20028;-77
2023/02/16 08:16:34;;;;;;;77.35;44.47;;;6.80;99.90;;;;;;5070154;28;20044;-76
2023/02/16 08:19:02;;;;;;;71.80;46.47;;;6.80;99.90;;;;;;5053734;28;20060;-76
2023/02/16 08:21:31;;;;;;;70.57;47.03;;;7.00;99.90;;;;;;5070621;28;20040;-76
2023/02/16 08:23:59;;;;;;;72.57;45.10;;;6.80;99.90;;;;;;5070189;28;20070;-77
2023/02/16 08:26:27;;;;;;;77.68;47.50;;;7.00;99.90;;;;;;5070866;28;20119;-77
2023/02/16 08:28:55;;;;;;;73.03;44.92;;;6.90;99.90;;;;;;5070422;28;20090;-77
2023/02/16 08:31:23;;;;;;;74.15;44.53;;;6.80;99.90;;;;;;5071900;28;20436;-77
2023/02/16 08:33:51;;;;;;;69.68;45.13;;;6.90;99.90;;;;;;5070103;28;20037;-77
2023/02/16 08:36:28;;;;;;;73.40;46.05;;;6.90;99.90;;;;;;5061885;28;20051;-76
2023/02/16 08:38:54;;;;;;;75.93;46.53;;;6.90;99.90;;;;;;5071944;28;20036;-77
2023/02/16 08:41:27;;;;;;;75.82;48.03;;;7.00;99.90;;;;;;5070326;28;20048;-77
2023/02/16 08:43:54;;;;;;;79.72;47.97;;;7.00;99.90;;;;;;5071433;28;20110;-76
2023/02/16 08:46:20;;;;;;;71.90;46.13;;;7.10;99.90;;;;;;5071054;28;20037;-76
2023/02/16 08:48:46;;;;;;;71.30;46.00;;;7.20;99.90;;;;;;5069684;28;20032;-77
2023/02/16 08:51:19;;;;;;;74.72;47.08;;;7.20;99.90;;;;;;5070355;28;20085;-76
2023/02/16 08:53:45;;;;;;;72.10;44.20;;;7.20;99.90;;;;;;5069390;28;20029;-76
2023/02/16 08:56:12;;;;;;;72.68;44.85;;;7.20;99.90;;;;;;5069960;28;20033;-77
2023/02/16 08:58:37;;;;;;;73.95;46.15;;;7.30;99.90;;;;;;5053557;28;20045;-76
2023/02/16 09:01:07;;;;;;;70.97;44.55;;;7.10;99.90;;;;;;5070056;28;20558;-76
2023/02/16 09:03:40;;;;;;;75.75;45.63;;;7.20;99.90;;;;;;5069572;28;20041;-76
2023/02/16 09:06:05;;;;;;;76.53;46.42;;;7.30;99.90;;;;;;5068698;28;20029;-77
2023/02/16 09:08:32;;;;;;;77.55;47.20;;;7.20;99.90;;;;;;5070115;28;20395;-76
2023/02/16 09:11:10;;;;;;;75.50;45.95;;;7.30;99.90;;;;;;5071185;28;20492;-76
2023/02/16 09:13:38;;;;;;;72.28;42.85;;;7.30;99.90;;;;;;5052456;28;20044;-76
2023/02/16 09:16:09;;;;;;;72.95;43.65;;;7.30;99.90;;;;;;5065186;28;20036;-77
2023/02/16 09:18:35;;;;;;;74.85;45.05;;;7.40;99.90;;;;;;5069500;28;20043;-77
2023/02/16 09:21:11;;;;;;;66.82;42.83;;;7.50;99.90;;;;;;5083673;28;20029;-76
2023/02/16 09:23:38;;;;;;;74.63;46.25;;;7.30;99.90;;;;;;5068336;28;20531;-77
2023/02/16 09:26:08;;;;;;;69.38;44.67;;;7.30;99.90;;;;;;5070924;28;20044;-77
2023/02/16 09:28:36;;;;;;;70.32;44.85;;;7.40;99.90;;;;;;5069679;28;20058;-77
2023/02/16 09:31:27;;;;;;;74.97;45.50;;;7.40;99.90;;;;;;5070933;28;20044;-77
2023/02/16 09:34:00;;;;;;;71.20;45.03;;;7.60;99.90;;;;;;5069325;28;20045;-76
2023/02/16 09:36:26;;;;;;;76.40;47.17;;;7.50;99.90;;;;;;5063851;28;20058;-76
2023/02/16 09:38:52;;;;;;;74.05;47.53;;;7.50;99.90;;;;;;5069758;28;20127;-77
2023/02/16 09:41:21;;;;;;;72.20;44.60;;;7.70;99.90;;;;;;5069573;28;20051;-76
2023/02/16 09:44:13;;;;;;;72.07;46.92;;;7.70;99.90;;;;;;5063061;28;20041;-76
2023/02/16 09:46:40;;;;;;;69.13;43.83;;;7.60;99.90;;;;;;5070186;28;20046;-76
2023/02/16 09:49:18;;;;;;;77.63;47.05;;;7.70;99.90;;;;;;5069376;28;20053;-76
2023/02/16 09:51:44;;;;;;;79.70;47.95;;;7.70;99.90;;;;;;5070964;28;20422;-76
2023/02/16 09:54:41;;;;;;;69.75;44.30;;;7.80;99.90;;;;;;5070458;28;20040;-76
2023/02/16 09:57:32;;;;;;;75.82;45.65;;;7.70;99.90;;;;;;5070765;28;20051;-76
2023/02/16 10:00:23;;;;;;;67.90;43.53;;;7.80;99.90;;;;;;5074300;28;20033;-76
2023/02/16 10:03:20;;;;;;;75.45;45.60;;;7.90;99.90;;;;;;5073990;28;20097;-76
2023/02/16 10:06:04;;;;;;;70.60;45.58;;;7.90;99.90;;;;;;5056244;28;20119;-76
2023/02/16 10:08:37;;;;;;;73.05;44.88;;;7.90;99.90;;;;;;5074236;28;20037;-78
2023/02/16 10:11:36;;;;;;;73.68;45.47;;;8.00;99.90;;;;;;5073256;28;20051;-77
2023/02/16 10:14:36;;;;;;;74.05;43.67;;;8.30;99.90;;;;;;5072339;28;20048;-77
2023/02/16 10:17:27;;;;;;;70.57;45.30;;;8.50;99.90;;;;;;5072760;28;20044;-77
2023/02/16 10:19:53;;;;;;;76.50;45.50;;;8.40;99.90;;;;;;5073946;28;20530;-77
2023/02/16 10:22:32;;;;;;;73.45;45.75;;;8.50;99.90;;;;;;5072676;28;20037;-77
2023/02/16 10:25:09;;;;;;;73.03;46.17;;;8.50;99.90;;;;;;5074050;28;20047;-76
2023/02/16 10:27:49;;;;;;;73.47;46.33;;;8.50;99.90;;;;;;5072624;28;20051;-78
2023/02/16 10:30:18;;;;;;;77.13;45.70;;;8.40;99.90;;;;;;5073790;28;20076;-77
2023/02/16 10:32:55;;;;;;;76.88;47.17;;;8.50;99.90;;;;;;5076856;28;20043;-77
2023/02/16 10:35:27;;;;;;;73.03;43.63;;;8.30;99.90;;;;;;5068827;28;20033;-77
2023/02/16 10:38:06;;;;;;;80.78;46.60;;;8.40;99.90;;;;;;5066564;28;20116;-77
2023/02/16 10:40:34;;;;;;;80.05;47.15;;;8.40;99.90;;;;;;5070235;28;20038;-77
2023/02/16 10:43:27;;;;;;;80.40;46.55;;;8.40;99.90;;;;;;5072160;28;20098;-77
2023/02/16 10:45:57;;;;;;;79.80;45.70;;;8.50;99.90;;;;;;5055916;28;20410;-77
2023/02/16 10:48:25;;;;;;;82.10;47.60;;;8.60;99.90;;;;;;5071604;28;20515;-77
2023/02/16 10:51:05;;;;;;;78.68;47.63;;;8.60;99.90;;;;;;5070796;28;20049;-77
2023/02/16 10:53:31;;;;;;;82.97;45.35;;;8.60;99.90;;;;;;5055158;28;20032;-78
2023/02/16 10:55:57;;;;;;;86.68;47.83;;;8.50;99.90;;;;;;5072932;28;20087;-77
2023/02/16 10:58:32;;;;;;;77.25;46.05;;;8.60;99.90;;;;;;5073001;28;20044;-77
2023/02/16 11:01:19;;;;;;;89.38;49.08;;;8.50;99.90;;;;;;5072023;28;20403;-78
2023/02/16 11:03:50;;;;;;;82.25;47.42;;;8.40;99.90;;;;;;5070212;28;20396;-78
2023/02/16 11:06:20;;;;;;;82.35;46.33;;;8.50;99.90;;;;;;5072914;28;20033;-76
2023/02/16 11:08:56;;;;;;;84.38;47.45;;;8.50;99.90;;;;;;5073057;28;20033;-77
2023/02/16 11:11:34;;;;;;;84.40;47.90;;;8.50;99.90;;;;;;5071082;28;20038;-77
2023/02/16 11:14:08;;;;;;;85.72;49.58;;;8.30;99.90;;;;;;5072801;28;20067;-76
2023/02/16 11:16:33;;;;;;;95.72;50.28;;;8.30;99.90;;;;;;5071529;28;20115;-77
2023/02/16 11:19:02;;;;;;;85.88;49.63;;;8.30;99.90;;;;;;5073138;28;20040;-77
2023/02/16 11:21:48;;;;;;;84.28;48.45;;;8.40;99.90;;;;;;5072861;28;20094;-78
2023/02/16 11:24:26;;;;;;;84.60;48.97;;;8.60;99.90;;;;;;5064708;28;20491;-77
2023/02/16 11:27:22;;;;;;;81.22;47.83;;;8.50;99.90;;;;;;5071698;28;20144;-77
2023/02/16 11:29:49;;;;;;;86.18;49.63;;;8.60;99.90;;;;;;5054640;28;20040;-77
2023/02/16 11:32:20;;;;;;;86.25;50.55;;;8.50;99.90;;;;;;5071614;28;20048;-77
2023/02/16 11:34:49;;;;;;;86.07;48.05;;;8.70;99.90;;;;;;5071315;28;20048;-77
2023/02/16 11:37:32;;;;;;;97.75;51.85;;;8.60;99.90;;;;;;5071373;28;20040;-77
2023/02/16 11:40:16;;;;;;;83.55;49.92;;;8.50;99.90;;;;;;5072621;28;20036;-77
2023/02/16 11:42:52;;;;;;;91.28;50.45;;;8.70;99.90;;;;;;5070851;28;20850;-77
2023/02/16 11:45:30;;;;;;;89.97;51.83;;;8.70;99.90;;;;;;5070990;28;20040;-77
2023/02/16 11:48:10;;;;;;;90.05;52.35;;;8.70;99.90;;;;;;5070963;28;20052;-76
2023/02/16 11:50:38;;;;;;;86.85;51.22;;;8.50;99.90;;;;;;5054463;28;20072;-77
2023/02/16 11:53:10;;;;;;;105.25;57.25;;;8.50;99.90;;;;;;5065815;28;20126;-76
2023/02/16 11:55:39;;;;;;;95.97;54.03;;;8.60;99.90;;;;;;5064965;28;20049;-77
2023/02/16 11:58:18;;;;;;;91.90;53.30;;;8.50;99.90;;;;;;5071777;28;20380;-77
2023/02/16 12:01:07;;;;;;;94.32;54.70;;;8.50;99.90;;;;;;5070685;28;20546;-77
2023/02/16 12:04:06;;;;;;;93.40;53.25;;;8.70;99.90;;;;;;5070456;28;20082;-77
2023/02/16 12:06:41;;;;;;;100.28;53.60;;;8.80;99.90;;;;;;5070105;28;20045;-78
2023/02/16 12:09:13;;;;;;;101.82;56.08;;;8.70;99.90;;;;;;5068217;28;20044;-79
2023/02/16 12:11:58;;;;;;;98.47;52.53;;;8.80;99.90;;;;;;5072067;28;20127;-79
2023/02/16 12:14:57;;;;;;;99.10;55.35;;;8.90;99.90;;;;;;5070653;28;20048;-78
2023/02/16 12:17:53;;;;;;;95.60;55.22;;;8.80;99.90;;;;;;5072033;28;20155;-78
2023/02/16 12:20:38;;;;;;;101.18;56.53;;;9.00;99.90;;;;;;5071943;28;20044;-78
2023/02/16 12:23:26;;;;;;;100.63;54.45;;;8.90;99.90;;;;;;5070377;28;20059;-78
2023/02/16 12:26:25;;;;;;;93.95;55.42;;;8.70;99.90;;;;;;5070669;28;20044;-78
2023/02/16 12:29:20;;;;;;;103.35;57.92;;;8.90;99.90;;;;;;5071917;28;20033;-78
2023/02/16 12:31:57;;;;;;;103.10;58.33;;;8.70;99.90;;;;;;5031750;28;20124;-78
2023/02/16 12:35:04;;;;;;;99.82;58.00;;;8.80;99.90;;;;;;5065258;28;20045;-78
2023/02/16 12:37:55;;;;;;;91.82;54.80;;;9.10;99.90;;;;;;5070457;28;20040;-77
2023/02/16 12:40:53;;;;;;;96.43;56.83;;;9.10;99.90;;;;;;5070513;28;20137;-79
2023/02/16 12:43:43;;;;;;;96.85;58.28;;;9.10;99.90;;;;;;5070065;28;20456;-76
2023/02/16 12:46:16;;;;;;;98.05;58.50;;;9.20;99.90;;;;;;5070053;28;20423;-75
2023/02/16 12:48:45;;;;;;;;;;;9.40;99.90;;;;;;5070644;28;20037;-75
2023/02/16 12:51:17;;;;;;;86.00;51.80;;;9.40;99.90;;;;;;5072039;28;19963;-76
2023/02/16 12:53:53;;;;;;;84.87;50.90;;;9.40;99.90;;;;;;5071342;28;20041;-75
2023/02/16 12:56:25;;;;;;;80.45;48.60;;;9.60;99.90;;;;;;5071333;28;20063;-75
2023/02/16 12:59:00;;;;;;;87.72;50.22;;;9.70;99.90;;;;;;5071188;28;20127;-74
2023/02/16 13:01:29;;;;;;;78.25;48.25;;;9.80;99.90;;;;;;5071494;28;20107;-75
2023/02/16 13:04:03;;;;;;;80.72;45.70;;;9.90;99.90;;;;;;5071010;28;20033;-75
2023/02/16 13:06:40;;;;;;;75.43;45.30;;;9.90;99.90;;;;;;5071466;28;20040;-75
2023/02/16 13:09:32;;;;;;;84.30;48.80;;;9.80;99.90;;;;;;5071284;28;20045;-75
2023/02/16 13:12:33;;;;;;;66.10;41.10;;;9.80;99.90;;;;;;5053262;28;20090;-75
2023/02/16 13:15:13;;;;;;;70.68;42.42;;;9.90;99.90;;;;;;5068709;28;20036;-75
2023/02/16 13:17:55;;;;;;;69.60;44.20;;;9.80;99.90;;;;;;5071214;28;20056;-75
2023/02/16 13:20:22;;;;;;;67.82;43.17;;;9.80;99.90;;;;;;5071286;28;20041;-75
2023/02/16 13:23:06;;;;;;;71.63;42.58;;;10.10;99.90;;;;;;5064630;28;20036;-75
2023/02/16 13:25:32;;;;;;;68.88;40.78;;;10.00;99.90;;;;;;5071086;28;20443;-75
2023/02/16 13:28:24;;;;;;;68.03;40.80;;;10.20;99.90;;;;;;5069984;28;20040;-75
2023/02/16 13:31:11;;;;;;;61.95;39.35;;;10.00;99.90;;;;;;5059001;28;20508;-75
2023/02/16 13:33:59;;;;;;;61.65;38.35;;;10.20;99.90;;;;;;5072159;28;20486;-75
2023/02/16 13:36:52;;;;;;;59.75;36.03;;;10.10;99.90;;;;;;5073732;28;20076;-75
2023/02/16 13:39:28;;;;;;;59.78;38.10;;;10.30;99.90;;;;;;5074963;28;20506;-75
2023/02/16 13:42:13;;;;;;;66.60;37.03;;;10.30;99.90;;;;;;5066099;28;20090;-75
2023/02/16 13:44:45;;;;;;;62.05;37.75;;;10.30;99.90;;;;;;5073029;28;20072;-75
2023/02/16 13:47:25;;;;;;;54.55;36.13;;;10.30;99.90;;;;;;5074953;28;20404;-75